Time;durP1;ratioP1;P1;durP2;ratioP2;P2;SDS_P1;SDS_P2;PMS_P1;PMS_P2;Temp;Humidity;BMP_temperature;BMP_pressure;BME280_temperature;BME280_humidity;BME280_pressure;Samples;Min_cycle;Max_cycle;Signal;HPM_P1;HPM_P2
2021/08/29 00:02:04;;;;;;;;;;;;;;;14.17;64.13;99538.41;5056394;28;19924;-75
2021/08/29 00:04:30;;;;;;;;;;;;;;;14.17;64.26;99541.09;5072386;28;19982;-75
2021/08/29 00:06:56;;;;;;;;;;;;;;;14.20;64.39;99544.34;5055616;28;19932;-75
2021/08/29 00:09:22;;;;;;;;;;;;;;;14.06;64.50;99537.53;5072425;28;19969;-77
2021/08/29 00:11:47;;;;;;;;;;;;;;;14.00;64.90;99545.34;5055397;28;20312;-78
2021/08/29 00:14:13;;;;;;;;;;;;;;;14.04;64.83;99538.69;5072415;28;20023;-77
2021/08/29 00:16:39;;;;;;;;;;;;;;;14.07;64.55;99543.78;5089269;28;20011;-76
2021/08/29 00:19:05;;;;;;;;;;;;;;;14.04;64.90;99541.38;5072249;28;19978;-76
2021/08/29 00:21:30;;;;;;;;;;;;;;;14.12;64.33;99541.53;5089083;28;19931;-75
2021/08/29 00:23:56;;;;;;;;;;;;;;;14.24;64.38;99543.06;5073355;28;19931;-76
2021/08/29 00:26:24;;;;;;;;;;;;;;;14.36;63.76;99538.41;5072039;28;19924;-79
2021/08/29 00:28:50;;;;;;;;;;;;;;;14.40;63.27;99538.97;5072058;28;19970;-76
2021/08/29 00:31:15;;;;;;;;;;;;;;;14.36;63.41;99542.94;5072093;28;19925;-76
2021/08/29 00:33:41;;;;;;;;;;;;;;;14.40;63.29;99544.34;5038746;28;19970;-75
2021/08/29 00:36:07;;;;;;;;;;;;;;;14.39;63.20;99548.03;5057038;28;19989;-76
2021/08/29 00:38:33;;;;;;;;;;;;;;;14.28;63.38;99541.81;5058416;28;19928;-76
2021/08/29 00:40:59;;;;;;;;;;;;;;;14.31;63.66;99557.66;5075288;28;20015;-77
2021/08/29 00:43:24;;;;;;;;;;;;;;;14.42;62.84;99550.44;5058484;28;20016;-77
2021/08/29 00:45:51;;;;;;;;;;;;;;;14.44;62.75;99545.75;5042629;28;19924;-76
2021/08/29 00:48:16;;;;;;;;;;;;;;;14.45;62.51;99555.53;5075456;28;19924;-76
2021/08/29 00:50:45;;;;;;;;;;;;;;;14.49;62.22;99548.88;5075644;28;19924;-76
2021/08/29 00:53:18;;;;;;;;;;;;;;;14.51;62.23;99541.53;5058421;28;19974;-78
2021/08/29 00:55:45;;;;;;;;;;;;;;;14.51;62.17;99550.44;5092092;28;19931;-76
2021/08/29 00:58:11;;;;;;;;;;;;;;;14.49;62.10;99551.56;5058456;28;19924;-76
2021/08/29 01:00:42;;;;;;;;;;;;;;;14.47;62.18;99545.47;5058386;28;20026;-76
2021/08/29 01:03:28;;;;;;;;;;;;;;;14.50;61.99;99550.59;5058734;28;20001;-76
2021/08/29 01:05:58;;;;;;;;;;;;;;;14.56;61.76;99550.06;5075045;28;19924;-76
2021/08/29 01:08:38;;;;;;;;;;;;;;;14.63;61.33;99556.56;5092902;28;20470;-75
2021/08/29 01:11:09;;;;;;;;;;;;;;;14.67;61.23;99557.97;5074934;28;19928;-78
2021/08/29 01:13:38;;;;;;;;;;;;;;;14.70;60.90;99562.19;5075336;28;20480;-78
2021/08/29 01:16:05;;;;;;;;;;;;;;;14.73;60.90;99553.84;5074764;28;19963;-76
2021/08/29 01:18:32;;;;;;;;;;;;;;;14.76;60.60;99554.41;5077852;28;19931;-76
2021/08/29 01:21:02;;;;;;;;;;;;;;;14.76;60.37;99557.09;5062117;28;20034;-76
2021/08/29 01:23:34;;;;;;;;;;;;;;;14.79;60.38;99566.72;5078568;28;19924;-77
2021/08/29 01:26:18;;;;;;;;;;;;;;;14.81;60.13;99567.41;5079030;28;20298;-77
2021/08/29 01:28:50;;;;;;;;;;;;;;;14.78;59.64;99570.38;5061971;28;20390;-77
2021/08/29 01:31:18;;;;;;;;;;;;;;;14.81;59.57;99570.94;5045272;28;19924;-76
2021/08/29 01:33:51;;;;;;;;;;;;;;;14.93;59.55;99568.09;5047671;28;20302;-76
2021/08/29 01:36:17;;;;;;;;;;;;;;;15.04;58.85;99570.63;5061507;28;19928;-78
2021/08/29 01:38:43;;;;;;;;;;;;;;;15.09;58.22;99568.34;5078204;28;20026;-76
2021/08/29 01:41:10;;;;;;;;;;;;;;;15.07;58.15;99570.34;5078174;28;20034;-76
2021/08/29 01:43:35;;;;;;;;;;;;;;;15.13;57.41;99567.06;5077985;28;19928;-76
2021/08/29 01:46:01;;;;;;;;;;;;;;;15.05;56.72;99572.34;5061769;28;19924;-76
2021/08/29 01:48:27;;;;;;;;;;;;;;;14.99;56.96;99573.75;5078341;28;19997;-78
2021/08/29 01:51:01;;;;;;;;;;;;;;;15.04;56.64;99579.56;5078295;28;20030;-78
2021/08/29 01:53:35;;;;;;;;;;;;;;;15.01;56.23;99579.84;5078254;28;19977;-78
2021/08/29 01:56:24;;;;;;;;;;;;;;;15.14;56.56;99576.00;5078042;28;19932;-76
2021/08/29 01:58:59;;;;;;;;;;;;;;;15.09;55.78;99584.50;5077892;28;19970;-78
2021/08/29 02:01:32;;;;;;;;;;;;;;;15.12;56.04;99578.84;5078122;28;20417;-77
2021/08/29 02:04:01;;;;;;;;;;;;;;;15.06;55.77;99584.78;5077974;28;19924;-77
2021/08/29 02:06:31;;;;;;;;;;;;;;;15.00;55.31;99579.97;5077655;28;19923;-77
2021/08/29 02:09:00;;;;;;;;;;;;;;;14.97;55.63;99583.84;5061175;28;19931;-77
2021/08/29 02:11:31;;;;;;;;;;;;;;;14.95;55.68;99587.66;5061084;28;19924;-76
2021/08/29 02:13:57;;;;;;;;;;;;;;;15.06;55.56;99590.19;5077753;28;19924;-77
2021/08/29 02:16:23;;;;;;;;;;;;;;;15.14;55.06;99593.00;5061330;28;20016;-77
2021/08/29 02:18:50;;;;;;;;;;;;;;;15.09;55.01;99584.50;5095447;28;20021;-76
2021/08/29 02:21:16;;;;;;;;;;;;;;;15.12;54.97;99595.00;5045831;28;19930;-77
2021/08/29 02:23:43;;;;;;;;;;;;;;;15.06;54.23;99591.03;5079410;28;19924;-76
2021/08/29 02:26:09;;;;;;;;;;;;;;;15.02;54.90;99599.53;5061983;28;19924;-76
2021/08/29 02:28:36;;;;;;;;;;;;;;;15.15;54.93;99591.16;5076329;28;20451;-78
2021/08/29 02:31:02;;;;;;;;;;;;;;;15.33;54.47;99602.00;5060804;28;19924;-76
2021/08/29 02:33:27;;;;;;;;;;;;;;;15.26;53.86;99599.88;5077225;28;19938;-76
2021/08/29 02:35:53;;;;;;;;;;;;;;;15.38;53.80;99603.25;5044310;28;19928;-78
2021/08/29 02:38:23;;;;;;;;;;;;;;;15.50;53.41;99614.72;5074010;28;19936;-77
2021/08/29 02:40:51;;;;;;;;;;;;;;;15.56;53.23;99608.72;5040842;28;20292;-78
2021/08/29 02:43:19;;;;;;;;;;;;;;;15.61;53.18;99601.06;5040633;28;20011;-76
2021/08/29 02:45:45;;;;;;;;;;;;;;;15.62;52.59;99607.28;5057145;28;20374;-77
2021/08/29 02:48:13;;;;;;;;;;;;;;;15.70;52.44;99610.97;5073492;28;20016;-78
2021/08/29 02:50:47;;;;;;;;;;;;;;;15.65;51.76;99610.56;5041222;28;20434;-76
2021/08/29 02:53:16;;;;;;;;;;;;;;;15.53;51.70;99619.78;5073630;28;20424;-77
2021/08/29 02:55:43;;;;;;;;;;;;;;;15.59;52.16;99613.81;5056851;28;19928;-77
2021/08/29 02:58:09;;;;;;;;;;;;;;;15.66;52.17;99614.97;5073737;28;19969;-76
2021/08/29 03:01:00;;;;;;;;;;;;;;;15.89;51.66;99614.56;5065370;28;20394;-77
2021/08/29 03:03:49;;;;;;;;;;;;;;;16.00;51.25;99614.38;5072746;28;19967;-77
2021/08/29 03:06:16;;;;;;;;;;;;;;;16.12;50.84;99613.16;5073299;28;20023;-76
2021/08/29 03:08:42;;;;;;;;;;;;;;;16.15;49.59;99614.69;5057294;28;19987;-77
2021/08/29 03:11:08;;;;;;;;;;;;;;;16.11;50.40;99616.84;5073118;28;19932;-76
2021/08/29 03:13:34;;;;;;;;;;;;;;;16.34;50.07;99609.16;5056353;28;19924;-78
2021/08/29 03:16:04;;;;;;;;;;;;;;;16.41;49.17;99621.06;5073120;28;19928;-77
2021/08/29 03:18:49;;;;;;;;;;;;;;;16.42;48.77;99622.72;5059177;28;19947;-76
2021/08/29 03:21:33;;;;;;;;;;;;;;;16.46;48.68;99617.88;5074134;28;19924;-76
2021/08/29 03:23:59;;;;;;;;;;;;;;;16.44;48.13;99619.91;5073058;28;19932;-76
2021/08/29 03:26:25;;;;;;;;;;;;;;;16.14;48.03;99619.25;5073448;28;19924;-78
2021/08/29 03:28:54;;;;;;;;;;;;;;;16.24;48.04;99620.00;5073537;28;19928;-79
2021/08/29 03:31:20;;;;;;;;;;;;;;;16.33;48.00;99628.22;5074489;28;19928;-77
2021/08/29 03:33:47;;;;;;;;;;;;;;;16.31;47.78;99617.56;5074468;28;19924;-76
2021/08/29 03:36:13;;;;;;;;;;;;;;;16.50;47.76;99621.97;5076363;28;19994;-77
2021/08/29 03:38:39;;;;;;;;;;;;;;;16.64;47.88;99620.59;5047191;28;19975;-78
2021/08/29 03:41:05;;;;;;;;;;;;;;;16.69;47.15;99627.19;5079483;28;20409;-77
2021/08/29 03:43:31;;;;;;;;;;;;;;;16.89;47.03;99624.38;5077492;28;19924;-77
2021/08/29 03:45:57;;;;;;;;;;;;;;;17.09;46.34;99625.88;5059855;28;19964;-76
2021/08/29 03:48:23;;;;;;;;;;;;;;;17.32;45.98;99619.97;5075968;28;19923;-77
2021/08/29 03:50:49;;;;;;;;;;;;;;;17.28;45.79;99626.69;5075892;28;19924;-76
2021/08/29 03:53:15;;;;;;;;;;;;;;;17.39;44.76;99631.81;5061121;28;20024;-79
2021/08/29 03:55:44;;;;;;;;;;;;;;;17.43;45.10;99638.59;5075983;28;19935;-77
2021/08/29 03:58:10;;;;;;;;;;;;;;;17.45;44.89;99631.16;5042219;28;20446;-75
2021/08/29 04:00:42;;;;;;;;;;;;;;;17.63;44.32;99634.66;5059790;28;20382;-77
2021/08/29 04:03:08;;;;;;;;;;;;;;;17.83;44.21;99626.38;5042378;28;19924;-76
2021/08/29 04:05:52;;;;;;;;;;;;;;;17.93;43.66;99633.31;5061466;28;20406;-79
2021/08/29 04:08:19;;;;;;;;;;;;;;;18.05;43.41;99633.00;5042512;28;20397;-79
2021/08/29 04:10:46;;;;;;;;;;;;;;;18.03;42.38;99635.06;5026414;28;20455;-78
2021/08/29 04:13:12;;;;;;;;;;;;;;;17.86;42.44;99634.13;5058899;28;19924;-76
2021/08/29 04:15:49;;;;;;;;;;;;;;;17.88;42.82;99629.41;5062239;28;19931;-76
2021/08/29 04:18:15;;;;;;;;;;;;;;;17.83;42.15;99629.91;5058603;28;19928;-77
2021/08/29 04:20:42;;;;;;;;;;;;;;;17.73;42.51;99635.41;5025911;28;19927;-77
2021/08/29 04:23:08;;;;;;;;;;;;;;;17.77;42.73;99635.94;5042569;28;20018;-77
2021/08/29 04:25:35;;;;;;;;;;;;;;;17.80;42.57;99635.63;5042338;28;19924;-78
2021/08/29 04:28:01;;;;;;;;;;;;;;;17.62;42.15;99632.97;5042193;28;19924;-78
2021/08/29 04:30:27;;;;;;;;;;;;;;;17.61;42.71;99636.69;5042080;28;19993;-77
2021/08/29 04:32:53;;;;;;;;;;;;;;;17.48;42.82;99636.25;5058556;28;19977;-76
2021/08/29 04:35:38;;;;;;;;;;;;;;;17.45;43.46;99647.38;5064150;28;19924;-76
2021/08/29 04:38:05;;;;;;;;;;;;;;;17.52;43.29;99643.03;5071818;28;19968;-77
2021/08/29 04:40:31;;;;;;;;;;;;;;;17.50;43.22;99653.19;5022499;28;20299;-76
2021/08/29 04:43:01;;;;;;;;;;;;;;;17.59;43.10;99643.25;5056150;28;19924;-77
2021/08/29 04:45:31;;;;;;;;;;;;;;;17.51;42.80;99635.94;5056136;28;19925;-77
2021/08/29 04:48:03;;;;;;;;;;;;;;;17.33;43.42;99638.69;5055326;28;19930;-78
2021/08/29 04:50:29;;;;;;;;;;;;;;;17.48;43.29;99637.09;5055765;28;20015;-77
2021/08/29 04:52:55;;;;;;;;;;;;;;;17.52;43.86;99643.03;5051290;28;19928;-77
2021/08/29 04:55:21;;;;;;;;;;;;;;;17.78;43.48;99642.19;5051077;28;19932;-77
2021/08/29 04:57:47;;;;;;;;;;;;;;;17.95;42.29;99643.97;5042462;28;19924;-76
2021/08/29 05:00:13;;;;;;;;;;;;;;;18.07;42.35;99648.09;5052810;28;19923;-77
2021/08/29 05:02:39;;;;;;;;;;;;;;;18.19;41.77;99641.34;5078983;28;19931;-77
2021/08/29 05:05:05;;;;;;;;;;;;;;;18.27;41.65;99654.06;5045770;28;19993;-76
2021/08/29 05:07:31;;;;;;;;;;;;;;;18.31;41.47;99655.41;5095903;28;20039;-76
2021/08/29 05:09:57;;;;;;;;;;;;;;;18.44;41.06;99641.44;5078042;28;19951;-73
2021/08/29 05:12:23;;;;;;;;;;;;;;;18.50;40.26;99643.44;5042690;28;20331;-76
2021/08/29 05:14:49;;;;;;;;;;;;;;;18.44;40.48;99649.56;5058778;28;19924;-77
2021/08/29 05:17:15;;;;;;;;;;;;;;;18.60;41.01;99654.16;5051373;28;19924;-76
2021/08/29 05:19:50;;;;;;;;;;;;;;;18.78;41.11;99651.34;5060704;28;19924;-76
2021/08/29 05:22:40;;;;;;;;;;;;;;;19.07;40.32;99651.69;5047984;28;20425;-75
2021/08/29 05:25:24;;;;;;;;;;;;;;;19.17;40.28;99657.75;5075753;28;19925;-77
2021/08/29 05:27:50;;;;;;;;;;;;;;;19.39;39.37;99650.78;5041960;28;19931;-79
2021/08/29 05:30:16;;;;;;;;;;;;;;;19.42;38.46;99655.88;5024979;28;19942;-76
2021/08/29 05:32:42;;;;;;;;;;;;;;;19.50;38.46;99657.72;5058177;28;20368;-76
2021/08/29 05:35:08;;;;;;;;;;;;;;;19.49;38.47;99656.03;5041442;28;20007;-77
2021/08/29 05:37:34;;;;;;;;;;;;;;;19.69;37.83;99664.66;5041469;28;19932;-76
2021/08/29 05:40:35;;;;;;;;;;;;;;;19.79;37.47;99672.59;5074255;28;20391;-76
2021/08/29 05:43:36;;;;;;;;;;;;;;;19.92;37.16;99663.91;5045100;28;19931;-79
2021/08/29 05:46:02;;;;;;;;;;;;;;;20.02;36.32;99667.25;5039892;28;20004;-77
2021/08/29 05:48:28;;;;;;;;;;;;;;;19.92;36.53;99662.03;5058214;28;20507;-77
2021/08/29 05:50:54;;;;;;;;;;;;;;;19.88;36.53;99666.97;5057718;28;19982;-76
2021/08/29 05:53:21;;;;;;;;;;;;;;;20.06;36.60;99663.19;5057512;28;19924;-77
2021/08/29 05:55:51;;;;;;;;;;;;;;;20.21;35.91;99660.56;5041498;28;20027;-77
2021/08/29 05:58:17;;;;;;;;;;;;;;;20.30;36.29;99654.06;5040972;28;20020;-76
2021/08/29 06:00:44;;;;;;;;;;;;;;;19.80;35.88;99658.00;5057088;28;19940;-75
2021/08/29 06:03:10;;;;;;;;;;;;;;;19.79;36.52;99651.75;5040754;28;20015;-76
2021/08/29 06:05:36;;;;;;;;;;;;;;;19.99;36.48;99662.19;5040609;28;19924;-75
2021/08/29 06:08:12;;;;;;;;;;;;;;;20.26;36.25;99655.44;5042083;28;19925;-77
2021/08/29 06:10:38;;;;;;;;;;;;;;;20.53;36.08;99643.25;5074489;28;19977;-76
2021/08/29 06:13:04;;;;;;;;;;;;;;;20.45;35.38;99649.56;5057504;28;19971;-76
2021/08/29 06:15:32;;;;;;;;;;;;;;;20.58;35.07;99647.16;5058368;28;19924;-76
2021/08/29 06:17:58;;;;;;;;;;;;;;;20.82;35.17;99648.00;5072267;28;19970;-76
2021/08/29 06:20:25;;;;;;;;;;;;;;;20.90;35.11;99650.66;5068189;28;19928;-77
2021/08/29 06:22:52;;;;;;;;;;;;;;;21.04;35.02;99646.28;5024964;28;19932;-78
2021/08/29 06:25:41;;;;;;;;;;;;;;;21.17;34.94;99648.38;5046714;28;19963;-77
2021/08/29 06:28:33;;;;;;;;;;;;;;;21.38;34.75;99640.41;5047430;28;19924;-79
2021/08/29 06:31:18;;;;;;;;;;;;;;;21.67;34.35;99646.91;5046374;28;19930;-79
2021/08/29 06:34:02;;;;;;;;;;;;;;;21.71;33.03;99642.78;5074637;28;20380;-78
2021/08/29 06:36:31;;;;;;;;;;;;;;;21.74;33.32;99645.09;5043975;28;19924;-76
2021/08/29 06:38:58;;;;;;;;;;;;;;;22.01;32.95;99643.63;5077337;28;19981;-78
2021/08/29 06:41:24;;;;;;;;;;;;;;;22.04;32.64;99630.47;5060624;28;19928;-78
2021/08/29 06:43:51;;;;;;;;;;;;;;;22.18;32.85;99627.94;5044374;28;20298;-78
2021/08/29 06:46:35;;;;;;;;;;;;;;;22.19;32.26;99640.50;5063128;28;20046;-78
2021/08/29 06:49:20;;;;;;;;;;;;;;;22.10;32.46;99630.75;5062967;28;19924;-76
2021/08/29 06:52:04;;;;;;;;;;;;;;;21.94;32.16;99634.53;5048725;28;19928;-78
2021/08/29 06:54:49;;;;;;;;;;;;;;;20.68;33.45;99629.75;5063268;28;19924;-78
2021/08/29 06:57:50;;;;;;;;;;;;;;;20.90;34.28;99639.78;5047300;28;19924;-77
2021/08/29 07:00:17;;;;;;;;;;;;;;;21.29;33.79;99625.19;5058019;28;20416;-77
2021/08/29 07:02:44;;;;;;;;;;;;;;;21.68;33.60;99627.66;5040525;28;19924;-77
2021/08/29 07:05:10;;;;;;;;;;;;;;;21.75;33.02;99622.34;5043212;28;20371;-78
2021/08/29 07:07:46;;;;;;;;;;;;;;;21.77;33.01;99631.13;5046567;28;20275;-78
2021/08/29 07:10:32;;;;;;;;;;;;;;;21.97;32.47;99621.38;5046115;28;20405;-77
2021/08/29 07:13:16;;;;;;;;;;;;;;;21.91;32.19;99626.72;5074153;28;19928;-77
2021/08/29 07:15:42;;;;;;;;;;;;;;;21.90;32.55;99631.31;5062642;28;20378;-78
2021/08/29 07:18:08;;;;;;;;;;;;;;;21.53;32.07;99630.38;5063018;28;19937;-77
2021/08/29 07:20:54;;;;;;;;;;;;;;;21.30;33.10;99626.84;5052341;28;19928;-77
2021/08/29 07:23:40;;;;;;;;;;;;;;;21.38;33.16;99626.81;5065542;28;20470;-78
2021/08/29 07:26:24;;;;;;;;;;;;;;;21.42;33.10;99630.84;5065247;28;19977;-79
2021/08/29 07:29:22;;;;;;;;;;;;;;;21.28;33.15;99626.19;5040669;28;19931;-78
2021/08/29 07:32:07;;;;;;;;;;;;;;;21.38;33.12;99621.38;5048432;28;19924;-77
2021/08/29 07:34:34;;;;;;;;;;;;;;;21.58;32.86;99622.50;5059994;28;19923;-78
2021/08/29 07:37:22;;;;;;;;;;;;;;;21.59;32.57;99617.94;5062156;28;20001;-77
2021/08/29 07:39:49;;;;;;;;;;;;;;;21.08;33.11;99626.72;5059129;28;20290;-77
2021/08/29 07:42:15;;;;;;;;;;;;;;;20.45;34.59;99627.84;5059979;28;19924;-78
2021/08/29 07:44:41;;;;;;;;;;;;;;;20.16;34.99;99622.22;5059497;28;20398;-77
2021/08/29 07:47:08;;;;;;;;;;;;;;;20.28;34.85;99628.97;5042906;28;19924;-75
2021/08/29 07:49:34;;;;;;;;;;;;;;;20.53;34.73;99622.38;5042408;28;20156;-79
2021/08/29 07:52:00;;;;;;;;;;;;;;;20.40;34.72;99627.53;5026172;28;20452;-76
2021/08/29 07:54:58;;;;;;;;;;;;;;;20.54;34.62;99628.69;5040274;28;19924;-78
2021/08/29 07:57:46;;;;;;;;;;;;;;;20.92;34.46;99628.75;5079059;28;19924;-75
2021/08/29 08:00:16;;;;;;;;;;;;;;;21.33;34.14;99615.66;5042799;28;19924;-75
2021/08/29 08:02:52;;;;;;;;;;;;;;;21.67;33.75;99614.28;5028365;28;19931;-78
2021/08/29 08:05:47;;;;;;;;;;;;;;;22.08;33.10;99606.44;5043191;28;19928;-77
2021/08/29 08:08:33;;;;;;;;;;;;;;;22.14;32.28;99610.28;5043608;28;19924;-76
2021/08/29 08:11:17;;;;;;;;;;;;;;;21.88;32.60;99605.31;5078361;28;19924;-76
2021/08/29 08:13:43;;;;;;;;;;;;;;;21.31;33.63;99609.50;5042482;28;20370;-76
2021/08/29 08:16:09;;;;;;;;;;;;;;;20.89;34.28;99610.06;5025866;28;19924;-77
2021/08/29 08:18:36;;;;;;;;;;;;;;;21.29;34.38;99601.53;5058738;28;19931;-78
2021/08/29 08:21:02;;;;;;;;;;;;;;;21.69;33.41;99599.41;5042454;28;19924;-76
2021/08/29 08:23:52;;;;;;;;;;;;;;;21.96;32.65;99592.44;5045325;28;19931;-76
2021/08/29 08:26:40;;;;;;;;;;;;;;;22.38;32.89;99585.44;5048794;28;19924;-77
2021/08/29 08:29:26;;;;;;;;;;;;;;;22.63;32.79;99591.34;5047318;28;19934;-77
2021/08/29 08:31:57;;;;;;;;;;;;;;;22.33;33.51;99593.34;5075201;28;19924;-76
2021/08/29 08:34:49;;;;;;;;;;;;;;;22.21;33.19;99594.88;5058053;28;19930;-76
2021/08/29 08:37:39;;;;;;;;;;;;;;;22.18;33.55;99595.25;5060780;28;19928;-77
2021/08/29 08:40:23;;;;;;;;;;;;;;;21.74;34.92;99596.13;5043716;28;19924;-78
2021/08/29 08:42:51;;;;;;;;;;;;;;;21.16;36.46;99589.63;5038553;28;19925;-77
2021/08/29 08:45:35;;;;;;;;;;;;;;;21.23;36.35;99591.41;5072457;28;20035;-77
2021/08/29 08:48:19;;;;;;;;;;;;;;;21.79;35.80;99586.38;5057933;28;19928;-76
2021/08/29 08:51:12;;;;;;;;;;;;;;;22.06;35.41;99584.00;5044977;28;19931;-77
2021/08/29 08:53:58;;;;;;;;;;;;;;;22.50;34.45;99578.44;5043913;28;20138;-77
2021/08/29 08:56:43;;;;;;;;;;;;;;;22.47;34.00;99572.53;5072152;28;19968;-77
2021/08/29 08:59:18;;;;;;;;;;;;;;;21.92;34.67;99574.81;5057214;28;19924;-77
2021/08/29 09:02:02;;;;;;;;;;;;;;;22.12;34.05;99577.78;5057561;28;19924;-77
2021/08/29 09:05:00;;;;;;;;;;;;;;;21.57;34.66;99566.41;5071289;28;19932;-77
2021/08/29 09:07:26;;;;;;;;;;;;;;;21.28;35.02;99572.66;5055097;28;19925;-77
2021/08/29 09:09:52;;;;;;;;;;;;;;;21.46;34.84;99569.59;5022282;28;19924;-77
2021/08/29 09:12:18;;;;;;;;;;;;;;;22.19;34.42;99559.69;5072353;28;19924;-77
2021/08/29 09:14:48;;;;;;;;;;;;;;;22.91;33.49;99574.22;5039353;28;19928;-76
2021/08/29 09:17:25;;;;;;;;;;;;;;;22.99;32.68;99555.00;5039458;28;19952;-77
2021/08/29 09:19:51;;;;;;;;;;;;;;;23.26;32.83;99558.78;5054806;28;20398;-76
2021/08/29 09:22:24;;;;;;;;;;;;;;;23.45;32.22;99563.50;5038164;28;20019;-77
2021/08/29 09:24:53;;;;;;;;;;;;;;;23.28;31.67;99548.50;5055424;28;20311;-77
2021/08/29 09:27:50;;;;;;;;;;;;;;;23.35;32.33;99554.84;5028634;28;19924;-78
2021/08/29 09:30:30;;;;;;;;;;;;;;;23.36;31.89;99548.34;5057247;28;19931;-77
2021/08/29 09:32:56;;;;;;;;;;;;;;;23.85;32.01;99544.66;5038659;28;19928;-76
2021/08/29 09:35:22;;;;;;;;;;;;;;;23.74;31.09;99532.41;5037969;28;20349;-76
2021/08/29 09:38:17;;;;;;;;;;;;;;;23.89;30.96;99540.47;5029165;28;19932;-77
2021/08/29 09:41:22;;;;;;;;;;;;;;;24.40;30.46;99537.25;5030169;28;19932;-77
2021/08/29 09:44:04;;;;;;;;;;;;;;;24.77;29.61;99537.72;5039793;28;20018;-77
2021/08/29 09:46:30;;;;;;;;;;;;;;;24.60;29.66;99531.00;5022443;28;20295;-76
2021/08/29 09:49:21;;;;;;;;;;;;;;;24.84;29.78;99537.72;5026561;28;19925;-75
2021/08/29 09:52:02;;;;;;;;;;;;;;;25.50;29.05;99514.91;5040427;28;19924;-76
2021/08/29 09:54:40;;;;;;;;;;;;;;;25.54;28.38;99517.03;5024099;28;20303;-76
2021/08/29 09:57:25;;;;;;;;;;;;;;;25.17;28.88;99518.59;5040409;28;19929;-77
2021/08/29 10:00:19;;;;;;;;;;;;;;;25.17;28.93;99513.13;5012759;28;19924;-76
2021/08/29 10:03:01;;;;;;;;;;;;;;;25.71;28.58;99511.88;5006964;28;19939;-78
2021/08/29 10:05:29;;;;;;;;;;;;;;;25.33;28.05;99515.38;5022066;28;19932;-77
2021/08/29 10:08:11;;;;;;;;;;;;;;;25.69;27.96;99522.22;5005132;28;20384;-75
2021/08/29 10:10:52;;;;;;;;;;;;;;;25.98;28.29;99511.78;5041252;28;20028;-75
2021/08/29 10:13:21;;;;;;;;;;;;;;;26.65;27.65;99507.59;5005986;28;20015;-76
2021/08/29 10:16:07;;;;;;;;;;;;;;;26.81;26.51;99512.50;5053535;28;20023;-76
2021/08/29 10:18:52;;;;;;;;;;;;;;;26.75;26.55;99513.41;5054803;28;19968;-76
2021/08/29 10:21:53;;;;;;;;;;;;;;;26.75;26.88;99516.16;5016711;28;19925;-75
2021/08/29 10:24:20;;;;;;;;;;;;;;;27.11;26.26;99509.09;5049577;28;19947;-76
2021/08/29 10:26:46;;;;;;;;;;;;;;;27.33;26.31;99506.75;5037619;28;20386;-80
2021/08/29 10:29:28;;;;;;;;;;;;;;;27.28;26.00;99507.44;5039461;28;19924;-77
2021/08/29 10:32:03;;;;;;;;;;;;;;;27.19;26.15;99508.78;5038681;28;19925;-77
2021/08/29 10:34:33;;;;;;;;;;;;;;;27.05;26.10;99496.28;5038287;28;19931;-77
2021/08/29 10:37:00;;;;;;;;;;;;;;;26.10;27.17;99505.41;5028159;28;19931;-79
2021/08/29 10:39:45;;;;;;;;;;;;;;;25.03;28.53;99497.75;5059384;28;20403;-76
2021/08/29 10:42:24;;;;;;;;;;;;;;;25.43;28.55;99498.53;5042506;28;19935;-78
2021/08/29 10:45:09;;;;;;;;;;;;;;;25.85;27.42;99491.63;5046807;28;19931;-79
2021/08/29 10:47:53;;;;;;;;;;;;;;;25.52;28.18;99496.38;5060397;28;19924;-86
2021/08/29 10:50:38;;;;;;;;;;;;;;;25.92;27.29;99497.94;5044463;28;20030;-76
2021/08/29 10:53:23;;;;;;;;;;;;;;;26.53;26.64;99498.41;5073519;28;19928;-74
2021/08/29 10:55:48;;;;;;;;;;;;;;;26.62;26.72;99489.66;5073275;28;19925;-77
2021/08/29 10:58:14;;;;;;;;;;;;;;;26.48;26.80;99495.47;5073183;28;19929;-75
2021/08/29 11:00:40;;;;;;;;;;;;;;;26.23;26.90;99493.53;5039901;28;19924;-80
2021/08/29 11:03:26;;;;;;;;;;;;;;;26.90;26.83;99482.91;5045364;28;19924;-77
2021/08/29 11:06:10;;;;;;;;;;;;;;;27.94;25.11;99488.50;5055789;28;19924;-77
2021/08/29 11:08:37;;;;;;;;;;;;;;;27.51;25.40;99494.94;5076860;28;19924;-76
2021/08/29 11:11:03;;;;;;;;;;;;;;;26.94;25.39;99497.00;5076766;28;20306;-77
2021/08/29 11:13:33;;;;;;;;;;;;;;;27.26;25.20;99492.28;5077170;28;19923;-78
2021/08/29 11:16:12;;;;;;;;;;;;;;;27.04;25.10;99489.09;5060108;28;19947;-79
2021/08/29 11:19:02;;;;;;;;;;;;;;;26.78;25.82;99491.03;5078959;28;19924;-79
2021/08/29 11:21:54;;;;;;;;;;;;;;;26.90;25.57;99488.41;5079374;28;19923;-76
2021/08/29 11:24:59;;;;;;;;;;;;;;;27.11;25.29;99485.25;5092707;28;19928;-77
2021/08/29 11:27:38;;;;;;;;;;;;;;;27.22;25.13;99486.41;5097319;28;20391;-77
2021/08/29 11:30:24;;;;;;;;;;;;;;;27.85;24.62;99477.00;5099209;28;19924;-75
2021/08/29 11:32:54;;;;;;;;;;;;;;;28.88;23.60;99467.59;5081620;28;19924;-79
2021/08/29 11:35:20;;;;;;;;;;;;;;;29.64;22.92;99475.91;5049259;28;19924;-79
2021/08/29 11:38:04;;;;;;;;;;;;;;;29.92;22.71;99475.13;5065680;28;19928;-79
2021/08/29 11:40:50;;;;;;;;;;;;;;;29.76;21.55;99471.22;5093766;28;20385;-77
2021/08/29 11:43:21;;;;;;;;;;;;;;;29.81;21.61;99473.25;5075897;28;19924;-76
2021/08/29 11:46:16;;;;;;;;;;;;;;;29.31;22.06;99466.41;5060125;28;20014;-75
2021/08/29 11:49:05;;;;;;;;;;;;;;;28.61;23.00;99461.72;5092751;28;19935;-76
2021/08/29 11:51:37;;;;;;;;;;;;;;;28.87;22.88;99473.34;5059175;28;19924;-77
2021/08/29 11:54:13;;;;;;;;;;;;;;;28.92;22.71;99467.94;5045301;28;19931;-76
2021/08/29 11:56:43;;;;;;;;;;;;;;;29.22;22.39;99465.91;5076493;28;20045;-76
2021/08/29 11:59:09;;;;;;;;;;;;;;;29.57;21.83;99470.53;5075883;28;19931;-76
2021/08/29 12:01:40;;;;;;;;;;;;;;;30.09;21.38;99470.50;5059211;28;20048;-76
2021/08/29 12:04:06;;;;;;;;;;;;;;;30.11;21.13;99473.81;5075230;28;19923;-75
2021/08/29 12:06:46;;;;;;;;;;;;;;;30.64;20.81;99474.50;5077161;28;19924;-77
2021/08/29 12:09:34;;;;;;;;;;;;;;;30.44;20.51;99470.31;5092017;28;19931;-74
2021/08/29 12:12:22;;;;;;;;;;;;;;;30.33;20.53;99462.13;5078182;28;19931;-75
2021/08/29 12:15:08;;;;;;;;;;;;;;;30.68;21.02;99464.63;5077154;28;19924;-76
2021/08/29 12:18:06;;;;;;;;;;;;;;;31.35;20.30;99470.09;5081499;28;19950;-75
2021/08/29 12:20:35;;;;;;;;;;;;;;;32.00;19.81;99460.13;5058774;28;19985;-74
2021/08/29 12:23:19;;;;;;;;;;;;;;;32.14;19.41;99460.56;5092007;28;19924;-75
2021/08/29 12:25:56;;;;;;;;;;;;;;;31.66;19.06;99465.81;5075986;28;19924;-75
2021/08/29 12:28:22;;;;;;;;;;;;;;;31.69;18.83;99462.53;5075254;28;20014;-75
2021/08/29 12:30:51;;;;;;;;;;;;;;;31.44;19.21;99462.22;5091762;28;20086;-75
2021/08/29 12:33:17;;;;;;;;;;;;;;;31.27;19.17;99466.94;5075296;28;19931;-75
2021/08/29 12:35:43;;;;;;;;;;;;;;;31.72;18.84;99461.19;5075272;28;19923;-76
2021/08/29 12:38:22;;;;;;;;;;;;;;;31.34;18.88;99464.84;5075235;28;20428;-76
2021/08/29 12:40:49;;;;;;;;;;;;;;;30.92;19.34;99457.06;5058906;28;20378;-76
2021/08/29 12:43:16;;;;;;;;;;;;;;;30.77;19.80;99465.06;5075286;28;19951;-76
2021/08/29 12:45:42;;;;;;;;;;;;;;;31.34;19.63;99457.41;5075308;28;20383;-76
2021/08/29 12:48:08;;;;;;;;;;;;;;;31.96;18.91;99453.47;5058176;28;19923;-76
2021/08/29 12:50:38;;;;;;;;;;;;;;;32.05;19.12;99451.09;5074877;28;20357;-75
2021/08/29 12:53:10;;;;;;;;;;;;;;;32.74;18.56;99442.03;5067399;28;19925;-76
2021/08/29 12:55:36;;;;;;;;;;;;;;;33.13;18.00;99443.41;5038723;28;20306;-74
2021/08/29 12:58:03;;;;;;;;;;;;;;;33.35;18.32;99443.22;5038311;28;19924;-75
2021/08/29 13:00:38;;;;;;;;;;;;;;;33.47;18.00;99442.22;5037993;28;20283;-75
2021/08/29 13:03:04;;;;;;;;;;;;;;;32.88;18.04;99446.00;5038204;28;19924;-76
2021/08/29 13:05:37;;;;;;;;;;;;;;;33.01;18.02;99440.00;5073709;28;19924;-75
2021/08/29 13:08:03;;;;;;;;;;;;;;;33.11;18.36;99434.53;5058559;28;20285;-76
2021/08/29 13:10:28;;;;;;;;;;;;;;;33.51;18.07;99435.88;5075211;28;19924;-76
2021/08/29 13:13:04;;;;;;;;;;;;;;;33.69;17.41;99442.03;5058877;28;20097;-77
2021/08/29 13:15:30;;;;;;;;;;;;;;;33.07;17.40;99441.72;5067397;28;20291;-76
2021/08/29 13:17:56;;;;;;;;;;;;;;;31.98;18.50;99445.75;5075156;28;19928;-74
2021/08/29 13:20:21;;;;;;;;;;;;;;;31.14;19.15;99446.88;5074984;28;19928;-75